Flight Track Log - Related Links

Times and Time Zones

All times are in EDT time to prevent confusion due to time zone crossing. See the DAL1890 flight status page for this flight to view local times or setup timezone preferences in your user account.

Time Position Orientation Groundspeed Altitude Reporting Facility
EDT Latitude Longitude Course Direction KTS MPH feet Rate Location/Type
Fri 06:54:16 AM 32.8833 -97.0333 65° Northeast 172 198 1,300  Level Dallas / Fort Worth TRACON
Fri 06:55:40 AM 32.8000 -97.0333 180° South 238 274 3,400 1,917 Climbing Dallas / Fort Worth TRACON
Fri 06:56:40 AM 32.7667 -96.9667 121° Southeast 281 323 5,900 2,316 Climbing Dallas / Fort Worth TRACON
Fri 06:57:00 AM 32.7260 -96.6722 68° East  Level FlightAware Approximate
Fri 06:58:00 AM 32.7710 -96.5387 65° Northeast  Level FlightAware Approximate
Fri 06:58:31 AM 32.7839 -96.8178 82° East 299 344 10,000  Level Fort Worth Center
Fri 06:59:00 AM 32.8214 -96.4079 65° Northeast  Level FlightAware Approximate
Fri 06:59:31 AM 32.8042 -96.6992 78° East 312 359 11,500  Level Fort Worth Center
Fri 07:00:31 AM 32.8264 -96.5753 78° East 362 417 13,000 1,700 Climbing Fort Worth Center
Fri 07:01:31 AM 32.8464 -96.4467 79° East 386 444 14,900 1,800 Climbing Fort Worth Center
Fri 07:02:31 AM 32.8661 -96.3103 80° East 408 470 16,600 1,650 Climbing Fort Worth Center
Fri 07:03:31 AM 32.8692 -96.1817 88° East 420 483 18,200 1,700 Climbing Fort Worth Center
Fri 07:04:31 AM 32.8717 -96.0208 89° East 434 499 20,000 1,700 Climbing Fort Worth Center
Fri 07:05:31 AM 32.8742 -95.8847 89° East 441 507 21,600 1,300 Climbing Fort Worth Center
Fri 07:06:31 AM 32.8700 -95.7167 92° East 449 517 22,600 1,167 Climbing Fort Worth Center
Fri 07:08:31 AM 32.8531 -95.4103 94° East 479 551 25,100 1,433 Climbing Fort Worth Center
Fri 07:09:31 AM 32.8439 -95.2425 94° East 479 551 26,900 1,600 Climbing Fort Worth Center
Fri 07:10:31 AM 32.8392 -95.0867 92° East 474 545 28,300 1,400 Climbing Fort Worth Center
Fri 07:11:31 AM 32.8319 -94.9336 93° East 469 540 29,700 1,250 Climbing Fort Worth Center
Fri 07:12:31 AM 32.8247 -94.7831 93° East 463 533 30,800 1,000 Climbing Fort Worth Center
Fri 07:13:31 AM 32.8156 -94.6500 95° East 458 527 31,700 850 Climbing Fort Worth Center
Fri 07:14:31 AM 32.8081 -94.4969 93° East 458 527 32,500 650 Climbing Fort Worth Center
Fri 07:15:31 AM 32.8003 -94.3514 94° East 458 527 33,000 250 Climbing Fort Worth Center
Fri 07:16:31 AM 32.7944 -94.2033 93° East 458 527 33,000  Level Fort Worth Center
Fri 07:17:31 AM 32.7864 -94.0528 94° East 458 527 33,000  Level Fort Worth Center
Fri 07:18:31 AM 32.7781 -93.9025 94° East 458 527 33,000  Level Fort Worth Center
Fri 07:19:31 AM 32.7697 -93.7544 94° East 458 527 33,000  Level Fort Worth Center
Fri 07:20:31 AM 32.7611 -93.6067 94° East 458 527 33,000  Level Fort Worth Center
Fri 07:21:31 AM 32.7525 -93.4564 94° East 458 527 33,000  Level Fort Worth Center
Fri 07:22:31 AM 32.7436 -93.3086 94° East 458 527 33,000  Level Fort Worth Center
Fri 07:23:31 AM 32.7364 -93.1558 93° East 458 527 33,000  Level Fort Worth Center
Fri 07:24:31 AM 32.7267 -93.0008 94° East 458 527 33,000  Level Fort Worth Center
Fri 07:25:31 AM 32.7172 -92.8481 94° East 458 527 33,000  Level Fort Worth Center
Fri 07:26:31 AM 32.7072 -92.6931 94° East 458 527 33,000  Level Fort Worth Center
Fri 07:27:31 AM 32.6992 -92.5381 93° East 458 527 33,000  Level Fort Worth Center
Fri 07:28:31 AM 32.6869 -92.3833 95° East 463 533 33,000  Level Fort Worth Center
Fri 07:30:26 AM 32.6644 -92.0725 95° East 474 545 33,000  Level Memphis Center
Fri 07:31:26 AM 32.6478 -91.9167 97° East 474 545 33,000  Level Memphis Center
Fri 07:32:26 AM 32.6369 -91.7586 95° East 479 551 33,000  Level Memphis Center
Fri 07:33:26 AM 32.6261 -91.6053 95° East 479 551 33,000  Level Memphis Center
Fri 07:34:26 AM 32.6150 -91.4522 95° East 479 551 33,000  Level Memphis Center
Fri 07:35:26 AM 32.5994 -91.2944 97° East 479 551 33,000  Level Memphis Center
Fri 07:36:26 AM 32.5903 -91.1439 94° East 479 551 33,000  Level Memphis Center
Fri 07:37:26 AM 32.5764 -90.9858 96° East 474 545 33,000  Level Memphis Center
Fri 07:38:26 AM 32.5644 -90.8331 95° East 474 545 33,000  Level Memphis Center
Fri 07:39:26 AM 32.5506 -90.6803 96° East 474 545 33,000  Level Memphis Center
Fri 07:40:26 AM 32.5381 -90.5397 96° East 474 545 33,000  Level Memphis Center
Fri 07:41:26 AM 32.5236 -90.3844 96° East 469 540 33,000  Level Memphis Center
Fri 07:42:26 AM 32.5111 -90.2317 96° East 469 540 33,000  Level Memphis Center
Fri 07:43:26 AM 32.4961 -90.0764 96° East 469 540 33,000  Level Memphis Center
Fri 07:44:26 AM 32.4811 -89.9214 97° East 469 540 33,000  Level Memphis Center
Fri 07:45:26 AM 32.4681 -89.7664 96° East 469 540 33,000  Level Memphis Center
Fri 07:46:26 AM 32.4547 -89.6089 96° East 469 540 33,000  Level Memphis Center
Fri 07:47:26 AM 32.4411 -89.4589 96° East 469 540 33,000  Level Memphis Center
Fri 07:48:26 AM 32.4250 -89.2892 96° East 469 540 33,000  Level Memphis Center
Fri 07:49:26 AM 32.4111 -89.1342 96° East 469 540 33,000  Level Memphis Center
Fri 07:50:26 AM 32.3950 -88.9794 97° East 469 540 33,000  Level Memphis Center
Fri 07:51:26 AM 32.3806 -88.8247 96° East 469 540 33,000  Level Memphis Center
Fri 07:53:09 AM 32.4064 -88.5703 83° East 460 529 33,000  Level Atlanta Center
Fri 07:54:09 AM 32.4247 -88.4139 82° East 465 535 33,000  Level Atlanta Center
Fri 07:55:09 AM 32.4444 -88.2622 81° East 465 535 33,000  Level Atlanta Center
Fri 07:56:09 AM 32.4600 -88.1103 83° East 465 535 33,000  Level Atlanta Center
Fri 07:57:09 AM 32.4778 -87.9536 82° East 465 535 33,000 -450 Level Atlanta Center
Fri 07:58:09 AM 32.5031 -87.8069 78° East 470 541 32,100 -1,000 Descending Atlanta Center
Fri 07:59:09 AM 32.5369 -87.6558 75° East 463 533 31,000 -900 Descending Atlanta Center
Fri 08:00:09 AM 32.5703 -87.5092 75° East 463 533 30,300 -700 Descending Atlanta Center
Fri 08:01:09 AM 32.6014 -87.3625 76° East 463 533 29,600 -700 Descending Atlanta Center
Fri 08:02:09 AM 32.6325 -87.2181 76° East 463 533 28,900 -700 Descending Atlanta Center
Fri 08:03:09 AM 32.6653 -87.0739 75° East 453 521 28,200 -900 Descending Atlanta Center
Fri 08:04:09 AM 32.6958 -86.9292 76° East 447 514 27,100 -600 Descending Atlanta Center
Fri 08:05:09 AM 32.7283 -86.7822 75° East 452 520 27,000 -50 Descending Atlanta Center
Fri 08:06:09 AM 32.7589 -86.6347 76° East 452 520 27,000  Level Atlanta Center
Fri 08:07:09 AM 32.7889 -86.4875 76° East 452 520 27,000  Level Atlanta Center
Fri 08:08:09 AM 32.8211 -86.3375 76° East 452 520 27,000  Level Atlanta Center
Fri 08:09:09 AM 32.8528 -86.1925 75° East 443 510 27,000  Level Atlanta Center
Fri 08:10:09 AM 32.8844 -86.0450 76° East 449 517 27,000 -300 Level Atlanta Center
Fri 08:11:09 AM 32.9264 -85.9025 71° East 449 517 26,400 -1,300 Descending Atlanta Center
Fri 08:12:09 AM 32.9703 -85.7647 69° East 454 522 24,400 -2,150 Descending Atlanta Center
Fri 08:13:09 AM 33.0097 -85.6292 71° East 448 516 22,100 -2,350 Descending Atlanta Center
Fri 08:14:09 AM 33.0467 -85.4983 71° East 431 496 19,700 -2,200 Descending Atlanta Center
Fri 08:15:09 AM 33.0836 -85.3750 70° East 406 467 17,700 -2,150 Descending Atlanta Center
Fri 08:16:09 AM 33.1225 -85.2517 69° East 394 453 15,400 -1,900 Descending Atlanta Center
Fri 08:17:09 AM 33.1569 -85.1281 72° East 389 448 13,900 -750 Descending Atlanta Center
Fri 08:18:09 AM 33.1975 -85.0144 67° East 382 440 13,900 -500 Level Atlanta Center
Fri 08:19:09 AM 33.2650 -84.9208 49° Northeast 377 434 12,900 -1,000 Descending Atlanta Center
Fri 08:20:09 AM 33.3347 -84.8294 48° Northeast 364 419 11,900 -450 Descending Atlanta Center
Fri 08:21:09 AM 33.4019 -84.7431 47° Northeast 359 413 12,000  Climbing Atlanta Center
Fri 08:22:09 AM 33.4672 -84.6514 49° Northeast 359 413 11,900  Descending Atlanta Center
Fri 08:23:09 AM 33.5281 -84.5722 47° Northeast 342 394 12,000 -300 Climbing Atlanta Center
Fri 08:24:09 AM 33.5450 -84.4900 76° East 263 303 11,300 -1,200 Descending Atlanta Center
Fri 08:25:09 AM 33.5453 -84.4053 90° East 251 289 9,600 -2,224 Descending Atlanta Center
Fri 08:26:32 AM 33.5500 -84.2833 87° East 251 289 6,000 -2,140 Descending Atlanta TRACON
Fri 08:27:32 AM 33.5833 -84.2333 51° Northeast 214 246 4,500 -1,421 Descending Atlanta TRACON
Fri 08:28:26 AM 33.6000 -84.2667 301° West 169 194 3,300 -1,053 Descending Atlanta TRACON
Fri 08:29:26 AM 33.6167 -84.3167 292° West 180 207 2,500 -800 Descending Atlanta TRACON
Fri 08:30:26 AM 33.6167 -84.3667 270° West 157 181 1,700 -800 Descending Atlanta TRACON

Login

Don't have an account? Register now (free) for customized features, flight alerts, and more!